createdAt,value
2022-08-31T00:00:41.417Z,102411.72
2022-08-31T00:04:00.936Z,102407.41
2022-08-31T00:07:06.156Z,102400.38
2022-08-31T00:10:15.158Z,102396.06
2022-08-31T00:13:18.935Z,102398.78
2022-08-31T00:16:23.605Z,102395.22
2022-08-31T00:19:27.656Z,102391.72
2022-08-31T00:22:32.770Z,102398.72
2022-08-31T00:25:38.319Z,102394.38
2022-08-31T00:28:42.094Z,102397.91
2022-08-31T00:31:46.997Z,102397.06
2022-08-31T00:34:52.422Z,102397.09
2022-08-31T00:37:57.951Z,102401.50
2022-08-31T00:41:02.227Z,102393.66
2022-08-31T00:44:08.701Z,102404.19
2022-08-31T00:47:12.366Z,102398.94
2022-08-31T00:50:19.456Z,102404.31
2022-08-31T00:53:25.151Z,102406.06
2022-08-31T00:56:31.404Z,102405.25
2022-08-31T00:59:35.180Z,102409.66
2022-08-31T01:02:39.728Z,102411.50
2022-08-31T01:05:43.786Z,102415.88
2022-08-31T01:08:49.430Z,102417.72
2022-08-31T01:11:53.329Z,102416.81
2022-08-31T01:14:57.849Z,102429.19
2022-08-31T01:18:05.892Z,102420.50
2022-08-31T01:21:26.352Z,102425.78
2022-08-31T01:24:34.627Z,102424.06
2022-08-31T01:27:39.103Z,102431.13
2022-08-31T01:30:44.964Z,102425.03
2022-08-31T01:33:49.083Z,102426.84
2022-08-31T01:36:54.072Z,102416.41
2022-08-31T01:39:59.145Z,102419.13
2022-08-31T01:43:03.155Z,102416.50
2022-08-31T01:46:09.534Z,102412.19
2022-08-31T01:49:15.432Z,102409.56
2022-08-31T01:52:19.235Z,102416.66
2022-08-31T01:55:24.468Z,102416.69
2022-08-31T01:58:28.155Z,102419.38
2022-08-31T02:01:36.769Z,102429.94
2022-08-31T02:04:40.591Z,102429.13
2022-08-31T02:07:44.323Z,102427.41
2022-08-31T02:10:49.372Z,102426.59
2022-08-31T02:13:53.067Z,102431.03
2022-08-31T02:16:56.767Z,102426.69
2022-08-31T02:20:00.468Z,102425.84
2022-08-31T02:23:04.594Z,102428.47
2022-08-31T02:26:10.886Z,102423.28
2022-08-31T02:29:14.507Z,102419.81
2022-08-31T02:32:19.974Z,102425.09
2022-08-31T02:35:24.025Z,102422.44
2022-08-31T02:38:28.273Z,102424.22
2022-08-31T02:41:33.452Z,102417.28
2022-08-31T02:44:37.298Z,102414.66
2022-08-31T02:47:40.919Z,102420.75
2022-08-31T02:50:48.166Z,102410.34
2022-08-31T02:53:51.881Z,102409.50
2022-08-31T02:56:56.929Z,102412.16
2022-08-31T03:00:00.550Z,102413.94
2022-08-31T03:03:06.222Z,102411.34
2022-08-31T03:06:09.911Z,102416.66
2022-08-31T03:09:13.647Z,102420.16
2022-08-31T03:12:18.650Z,102419.34
2022-08-31T03:15:24.687Z,102423.75
2022-08-31T03:18:28.339Z,102421.13
2022-08-31T03:21:31.973Z,102419.41
2022-08-31T03:24:35.611Z,102417.72
2022-08-31T03:27:41.878Z,102410.69
2022-08-31T03:30:45.711Z,102417.75
2022-08-31T03:33:49.654Z,102409.94
2022-08-31T03:36:53.280Z,102409.13
2022-08-31T03:39:57.227Z,102416.09
2022-08-31T03:43:02.249Z,102410.91
2022-08-31T03:46:11.878Z,102417.06
2022-08-31T03:49:15.902Z,102419.69
2022-08-31T03:52:21.880Z,102417.94
2022-08-31T03:55:27.483Z,102417.09
2022-08-31T03:58:33.799Z,102429.38
2022-08-31T04:01:38.615Z,102428.50
2022-08-31T04:04:43.194Z,102424.16
2022-08-31T04:07:46.920Z,102429.44
2022-08-31T04:10:53.800Z,102426.84
2022-08-31T04:13:58.902Z,102434.69
2022-08-31T04:17:02.651Z,102431.22
2022-08-31T04:20:08.238Z,102433.81
2022-08-31T04:23:11.949Z,102427.75
2022-08-31T04:26:21.387Z,102434.72
2022-08-31T04:29:26.676Z,102432.09
2022-08-31T04:32:30.297Z,102434.72
2022-08-31T04:35:33.957Z,102435.59
2022-08-31T04:38:38.527Z,102447.81
2022-08-31T04:41:45.403Z,102442.53
2022-08-31T04:44:50.402Z,102441.69
2022-08-31T04:47:54.198Z,102443.44
2022-08-31T04:51:02.935Z,102448.69
2022-08-31T04:54:10.236Z,102452.16
2022-08-31T04:57:13.866Z,102454.78
2022-08-31T05:00:19.206Z,102456.50
2022-08-31T05:03:23.042Z,102461.72
2022-08-31T05:06:30.915Z,102466.97
2022-08-31T05:09:34.535Z,102465.22
2022-08-31T05:12:38.139Z,102466.94
2022-08-31T05:15:46.746Z,102470.41
2022-08-31T05:18:54.640Z,102471.22
2022-08-31T05:21:58.264Z,102463.34
2022-08-31T05:25:01.920Z,102466.84
2022-08-31T05:28:05.743Z,102474.63
2022-08-31T05:31:10.937Z,102465.81
2022-08-31T05:34:16.139Z,102472.75
2022-08-31T05:37:20.667Z,102470.94
2022-08-31T05:40:29.998Z,102468.25
2022-08-31T05:43:35.354Z,102473.41
2022-08-31T05:46:41.881Z,102475.88
2022-08-31T05:49:46.314Z,102478.41
2022-08-31T05:52:50.003Z,102475.56
2022-08-31T05:56:01.545Z,102473.44
2022-08-31T05:59:06.084Z,102475.69
2022-08-31T06:02:12.063Z,102479.63
2022-08-31T06:05:15.982Z,102485.13
2022-08-31T06:08:20.102Z,102476.81
2022-08-31T06:11:34.814Z,102484.41
2022-08-31T06:14:38.979Z,102477.75
2022-08-31T06:17:44.946Z,102479.94
2022-08-31T06:20:50.077Z,102475.13
2022-08-31T06:23:58.045Z,102480.25
2022-08-31T06:27:02.837Z,102485.81
2022-08-31T06:30:08.574Z,102483.56
2022-08-31T06:33:14.863Z,102486.47
2022-08-31T06:36:22.324Z,102492.22
2022-08-31T06:39:26.312Z,102492.91
2022-08-31T06:42:30.096Z,102493.19
2022-08-31T06:45:33.752Z,102490.06
2022-08-31T06:48:39.354Z,102482.91
2022-08-31T06:51:43.442Z,102482.84
2022-08-31T06:54:47.154Z,102490.59
2022-08-31T06:57:50.783Z,102489.09
2022-08-31T07:00:54.528Z,102489.41
2022-08-31T07:04:01.591Z,102488.09
2022-08-31T07:07:11.396Z,102482.53
2022-08-31T07:10:15.236Z,102487.38
2022-08-31T07:13:19.090Z,102486.94
2022-08-31T07:16:25.616Z,102500.41
2022-08-31T07:19:30.908Z,102498.94
2022-08-31T07:22:34.650Z,102490.75
2022-08-31T07:25:39.550Z,102498.97
2022-08-31T07:28:44.415Z,102501.63
2022-08-31T07:31:48.964Z,102493.84
2022-08-31T07:34:59.748Z,102495.94
2022-08-31T07:38:23.366Z,102494.72
2022-08-31T07:41:47.072Z,102488.97
2022-08-31T07:44:53.689Z,102488.66
2022-08-31T07:47:59.912Z,102496.06
2022-08-31T07:51:05.400Z,102496.50
2022-08-31T07:54:09.038Z,102492.66
2022-08-31T07:57:13.791Z,102490.97
2022-08-31T08:00:22.220Z,102496.72
2022-08-31T08:03:28.087Z,102492.81
2022-08-31T08:06:34.165Z,102495.25
2022-08-31T08:09:38.142Z,102498.84
2022-08-31T08:12:41.942Z,102494.81
2022-08-31T08:15:46.335Z,102505.19
2022-08-31T08:18:50.038Z,102502.66
2022-08-31T08:21:55.843Z,102496.66
2022-08-31T08:25:04.739Z,102502.97
2022-08-31T08:28:28.972Z,102499.31
2022-08-31T08:31:35.089Z,102504.56
2022-08-31T08:34:43.503Z,102507.97
2022-08-31T08:37:58.605Z,102503.03
2022-08-31T08:41:08.075Z,102504.63
2022-08-31T08:44:18.119Z,102511.69
2022-08-31T08:47:37.729Z,102504.91
2022-08-31T08:50:43.803Z,102510.13
2022-08-31T08:53:57.164Z,102508.50
2022-08-31T08:57:04.710Z,102501.44
2022-08-31T09:00:13.205Z,102504.72
2022-08-31T09:03:30.898Z,102502.81
2022-08-31T09:06:51.083Z,102507.88
2022-08-31T09:10:06.811Z,102513.84
2022-08-31T09:13:32.069Z,102509.53
2022-08-31T09:16:50.996Z,102501.69
2022-08-31T09:20:00.653Z,102497.28
2022-08-31T09:23:08.221Z,102491.88
2022-08-31T09:26:18.703Z,102495.31
2022-08-31T09:29:26.739Z,102487.31
2022-08-31T09:32:34.956Z,102480.94
2022-08-31T09:35:41.507Z,102487.25
2022-08-31T09:38:47.963Z,102486.19
2022-08-31T09:41:58.086Z,102489.13
2022-08-31T09:45:11.754Z,102490.47
2022-08-31T09:48:48.770Z,102492.34
2022-08-31T09:51:52.588Z,102489.81
2022-08-31T09:55:13.598Z,102489.22
2022-08-31T09:58:30.930Z,102484.47
2022-08-31T10:01:46.404Z,102478.09
2022-08-31T10:04:55.097Z,102476.13
2022-08-31T10:08:07.241Z,102468.38
2022-08-31T10:11:16.725Z,102478.50
2022-08-31T10:14:36.266Z,102476.28
2022-08-31T10:17:47.221Z,102471.13
2022-08-31T10:20:59.676Z,102464.91
2022-08-31T10:24:20.682Z,102460.50
2022-08-31T10:27:38.661Z,102451.56
2022-08-31T10:30:54.155Z,102452.75
2022-08-31T10:34:22.276Z,102451.78
2022-08-31T10:37:35.770Z,102454.94
2022-08-31T10:40:47.600Z,102448.97
2022-08-31T10:44:02.702Z,102446.94
2022-08-31T10:47:09.006Z,102447.84
2022-08-31T10:50:34.074Z,102449.03
2022-08-31T10:53:56.707Z,102449.41
2022-08-31T10:57:21.463Z,102448.97
2022-08-31T11:00:51.037Z,102440.94
2022-08-31T11:04:34.695Z,102436.59
2022-08-31T11:07:53.316Z,102429.75
2022-08-31T11:11:00.534Z,102426.44
2022-08-31T11:14:45.452Z,102431.19
2022-08-31T11:18:29.758Z,102414.38
2022-08-31T11:22:00.379Z,102422.53
2022-08-31T11:25:52.188Z,102415.06
2022-08-31T11:29:02.741Z,102410.59
2022-08-31T11:32:20.087Z,102412.53
2022-08-31T11:36:06.389Z,102405.19
2022-08-31T11:39:44.289Z,102404.94
2022-08-31T11:43:01.496Z,102397.34
2022-08-31T11:46:47.991Z,102390.47
2022-08-31T11:49:54.336Z,102398.63
2022-08-31T11:53:00.284Z,102392.00
2022-08-31T11:56:07.104Z,102389.25
2022-08-31T11:59:34.015Z,102384.00
2022-08-31T12:02:46.126Z,102381.59
2022-08-31T12:05:57.889Z,102380.44
2022-08-31T12:09:30.023Z,102381.31
2022-08-31T12:13:07.615Z,102375.81
2022-08-31T12:16:57.867Z,102374.78
2022-08-31T12:20:16.293Z,102367.09
2022-08-31T12:23:37.427Z,102363.78
2022-08-31T12:27:10.991Z,102366.16
2022-08-31T12:30:27.003Z,102362.06
2022-08-31T12:33:32.505Z,102360.44
2022-08-31T12:36:38.411Z,102356.91
2022-08-31T12:39:42.064Z,102348.41
2022-08-31T12:43:01.960Z,102345.09
2022-08-31T12:46:48.244Z,102346.31
2022-08-31T12:50:09.375Z,102351.72
2022-08-31T12:54:02.564Z,102344.66
2022-08-31T12:57:25.736Z,102347.53
2022-08-31T13:00:34.487Z,102340.59
2022-08-31T13:03:46.771Z,102337.88
2022-08-31T13:07:13.634Z,102337.88
2022-08-31T13:10:29.023Z,102338.97
2022-08-31T13:13:32.749Z,102329.03
2022-08-31T13:16:39.506Z,102321.22
2022-08-31T13:19:52.926Z,102320.78
2022-08-31T13:23:02.652Z,102323.63
2022-08-31T13:26:15.204Z,102322.59
2022-08-31T13:29:25.354Z,102312.25
2022-08-31T13:32:35.251Z,102313.22
2022-08-31T13:35:45.013Z,102309.69
2022-08-31T13:38:53.863Z,102309.97
2022-08-31T13:42:05.944Z,102308.53
2022-08-31T13:45:30.259Z,102308.66
2022-08-31T13:48:40.877Z,102303.84
2022-08-31T13:51:48.311Z,102303.84
2022-08-31T13:55:01.491Z,102315.81
2022-08-31T13:58:12.907Z,102302.97
2022-08-31T14:01:25.056Z,102315.13
2022-08-31T14:05:00.502Z,102306.06
2022-08-31T14:08:09.418Z,102297.53
2022-08-31T14:11:15.186Z,102292.19
2022-08-31T14:14:24.122Z,102293.53
2022-08-31T14:17:30.327Z,102295.06
2022-08-31T14:20:39.104Z,102292.56
2022-08-31T14:23:44.862Z,102288.00
2022-08-31T14:26:48.447Z,102288.84
2022-08-31T14:29:52.997Z,102288.38
2022-08-31T14:32:58.220Z,102286.94
2022-08-31T14:36:04.272Z,102288.19
2022-08-31T14:39:10.344Z,102283.78
2022-08-31T14:42:20.016Z,102281.72
2022-08-31T14:45:31.357Z,102284.94
2022-08-31T14:48:35.286Z,102279.09
2022-08-31T14:51:39.477Z,102267.84
2022-08-31T14:54:47.750Z,102277.47
2022-08-31T14:57:58.397Z,102267.69
2022-08-31T15:01:04.855Z,102269.19
2022-08-31T15:04:08.866Z,102259.31
2022-08-31T15:07:12.573Z,102262.22
2022-08-31T15:10:19.226Z,102261.41
2022-08-31T15:13:23.599Z,102253.97
2022-08-31T15:16:27.908Z,102261.00
2022-08-31T15:19:33.077Z,102262.25
2022-08-31T15:22:40.604Z,102253.75
2022-08-31T15:25:45.788Z,102263.50
2022-08-31T15:28:52.625Z,102260.84
2022-08-31T15:31:56.437Z,102259.94
2022-08-31T15:35:00.369Z,102256.78
2022-08-31T15:38:06.504Z,102250.91
2022-08-31T15:41:13.228Z,102248.09
2022-08-31T15:44:17.035Z,102261.22
2022-08-31T15:47:37.796Z,102262.56
2022-08-31T15:50:52.693Z,102257.22
2022-08-31T15:54:21.063Z,102254.97
2022-08-31T15:57:28.067Z,102248.72
2022-08-31T16:00:36.259Z,102245.22
2022-08-31T16:03:42.008Z,102247.16
2022-08-31T16:06:45.908Z,102246.25
2022-08-31T16:09:49.653Z,102244.94
2022-08-31T16:12:54.662Z,102240.03
2022-08-31T16:15:58.842Z,102234.13
2022-08-31T16:19:04.678Z,102235.19
2022-08-31T16:22:09.274Z,102234.38
2022-08-31T16:25:14.784Z,102236.22
2022-08-31T16:28:22.134Z,102236.59
2022-08-31T16:31:28.288Z,102218.66
2022-08-31T16:34:32.207Z,102223.06
2022-08-31T16:37:37.773Z,102215.13
2022-08-31T16:40:42.786Z,102217.41
2022-08-31T16:44:03.420Z,102220.66
2022-08-31T16:47:12.090Z,102229.72
2022-08-31T16:50:15.125Z,102223.00
2022-08-31T16:53:19.170Z,102222.31
2022-08-31T16:56:25.425Z,102219.72
2022-08-31T16:59:31.278Z,102216.38
2022-08-31T17:02:34.926Z,102223.31
2022-08-31T17:05:38.552Z,102225.28
2022-08-31T17:08:45.614Z,102234.91
2022-08-31T17:11:56.824Z,102230.09
2022-08-31T17:15:04.233Z,102228.91
2022-08-31T17:18:07.815Z,102230.38
2022-08-31T17:21:17.829Z,102230.78
2022-08-31T17:24:24.714Z,102230.44
2022-08-31T17:27:28.771Z,102237.16
2022-08-31T17:30:33.792Z,102241.81
2022-08-31T17:33:38.020Z,102241.63
2022-08-31T17:36:43.060Z,102232.97
2022-08-31T17:39:52.581Z,102243.66
2022-08-31T17:43:00.020Z,102233.69
2022-08-31T17:46:07.952Z,102241.25
2022-08-31T17:49:12.029Z,102249.69
2022-08-31T17:52:15.970Z,102244.91
2022-08-31T17:55:19.999Z,102243.94
2022-08-31T17:58:23.871Z,102253.78
2022-08-31T18:01:30.446Z,102241.16
2022-08-31T18:04:36.135Z,102260.22
2022-08-31T18:07:39.911Z,102257.88
2022-08-31T18:10:43.645Z,102263.00
2022-08-31T18:13:51.665Z,102262.53
2022-08-31T18:17:02.306Z,102262.16
2022-08-31T18:20:06.963Z,102265.44
2022-08-31T18:23:11.913Z,102268.69
2022-08-31T18:26:19.690Z,102276.16
2022-08-31T18:29:25.089Z,102273.28
2022-08-31T18:32:36.249Z,102273.41
2022-08-31T18:35:46.329Z,102275.84
2022-08-31T18:39:01.177Z,102277.06
2022-08-31T18:42:22.816Z,102279.44
2022-08-31T18:45:31.143Z,102285.03
2022-08-31T18:48:37.592Z,102290.56
2022-08-31T18:51:46.363Z,102295.28
2022-08-31T18:54:51.967Z,102293.97
2022-08-31T18:57:55.910Z,102296.75
2022-08-31T19:01:00.143Z,102306.06
2022-08-31T19:04:07.371Z,102310.69
2022-08-31T19:07:11.604Z,102313.66
2022-08-31T19:10:15.486Z,102314.72
2022-08-31T19:13:19.294Z,102311.47
2022-08-31T19:16:27.447Z,102310.03
2022-08-31T19:19:33.316Z,102305.06
2022-08-31T19:22:37.646Z,102305.06
2022-08-31T19:25:43.932Z,102309.03
2022-08-31T19:28:48.898Z,102305.81
2022-08-31T19:31:55.321Z,102311.50
2022-08-31T19:35:00.508Z,102308.28
2022-08-31T19:38:04.158Z,102320.84
2022-08-31T19:41:15.554Z,102309.59
2022-08-31T19:44:19.785Z,102317.88
2022-08-31T19:47:25.397Z,102313.81
2022-08-31T19:50:30.683Z,102309.53
2022-08-31T19:53:34.612Z,102310.69
2022-08-31T19:56:39.730Z,102306.56
2022-08-31T19:59:43.378Z,102307.47
2022-08-31T20:02:47.131Z,102316.09
2022-08-31T20:05:53.767Z,102320.63
2022-08-31T20:08:57.443Z,102312.06
2022-08-31T20:12:02.004Z,102318.28
2022-08-31T20:15:06.566Z,102318.53
2022-08-31T20:18:12.715Z,102320.63
2022-08-31T20:21:23.415Z,102330.56
2022-08-31T20:24:28.859Z,102319.22
2022-08-31T20:27:32.587Z,102331.84
2022-08-31T20:30:38.294Z,102342.75
2022-08-31T20:33:43.201Z,102338.72
2022-08-31T20:36:50.181Z,102342.25
2022-08-31T20:39:54.022Z,102345.25
2022-08-31T20:42:58.148Z,102347.78
2022-08-31T20:46:05.129Z,102350.59
2022-08-31T20:49:23.455Z,102354.25
2022-08-31T20:52:32.343Z,102349.22
2022-08-31T20:55:37.472Z,102345.78
2022-08-31T20:58:43.368Z,102346.75
2022-08-31T21:01:47.148Z,102350.41
2022-08-31T21:04:51.300Z,102348.72
2022-08-31T21:07:57.706Z,102348.06
2022-08-31T21:11:02.162Z,102348.97
2022-08-31T21:14:06.644Z,102351.84
2022-08-31T21:17:11.332Z,102356.22
2022-08-31T21:20:15.709Z,102362.41
2022-08-31T21:23:20.796Z,102360.88
2022-08-31T21:26:28.722Z,102373.28
2022-08-31T21:29:32.631Z,102360.28
2022-08-31T21:32:37.524Z,102363.16
2022-08-31T21:35:41.101Z,102365.94
2022-08-31T21:38:48.089Z,102374.06
2022-08-31T21:41:55.554Z,102367.16
2022-08-31T21:44:59.179Z,102382.22
2022-08-31T21:48:02.895Z,102383.16
2022-08-31T21:51:15.239Z,102382.47
2022-08-31T21:54:23.463Z,102384.41
2022-08-31T21:57:27.116Z,102381.09
2022-08-31T22:00:32.526Z,102387.38
2022-08-31T22:03:36.790Z,102382.09
2022-08-31T22:06:42.814Z,102384.06
2022-08-31T22:09:48.748Z,102375.41
2022-08-31T22:12:52.357Z,102379.03
2022-08-31T22:15:57.212Z,102377.31
2022-08-31T22:19:02.876Z,102373.84
2022-08-31T22:22:12.082Z,102382.72
2022-08-31T22:25:17.467Z,102383.44
2022-08-31T22:28:27.701Z,102391.50
2022-08-31T22:31:32.092Z,102385.47
2022-08-31T22:34:36.783Z,102394.34
2022-08-31T22:37:40.542Z,102392.72
2022-08-31T22:40:48.843Z,102390.13
2022-08-31T22:43:52.518Z,102398.16
2022-08-31T22:46:57.421Z,102393.00
2022-08-31T22:50:01.076Z,102401.03
2022-08-31T22:53:05.330Z,102393.16
2022-08-31T22:56:13.415Z,102397.53
2022-08-31T22:59:26.203Z,102395.09
2022-08-31T23:02:31.089Z,102399.59
2022-08-31T23:05:38.030Z,102399.69
2022-08-31T23:08:43.175Z,102396.28
2022-08-31T23:11:51.337Z,102388.50
2022-08-31T23:14:55.667Z,102396.41
2022-08-31T23:17:59.367Z,102392.16
2022-08-31T23:21:08.039Z,102390.56
2022-08-31T23:24:13.650Z,102377.50
2022-08-31T23:27:22.277Z,102382.78
2022-08-31T23:30:26.281Z,102383.00
2022-08-31T23:33:30.778Z,102381.31
2022-08-31T23:36:34.468Z,102381.47
2022-08-31T23:39:40.574Z,102376.31
2022-08-31T23:42:46.758Z,102376.47
2022-08-31T23:45:50.673Z,102373.06
2022-08-31T23:48:55.334Z,102372.31
2022-08-31T23:51:58.958Z,102378.50
2022-08-31T23:55:03.186Z,102374.19
2022-08-31T23:58:08.217Z,102366.34
